createdAt,value
2023-01-29T04:33:24.522Z,1017.64
2023-01-29T04:34:24.489Z,1017.54
2023-01-29T04:35:24.481Z,1017.57
2023-01-29T04:36:24.453Z,1017.63
2023-01-29T04:37:24.443Z,1017.65
2023-01-29T04:38:24.428Z,1017.68
2023-01-29T04:39:24.423Z,1017.65
2023-01-29T04:40:24.424Z,1017.70
2023-01-29T04:41:24.447Z,1017.71
2023-01-29T04:42:24.397Z,1017.70
2023-01-29T04:43:24.385Z,1017.65
2023-01-29T04:44:29.399Z,1017.66
2023-01-29T04:45:24.362Z,1017.53
2023-01-29T04:46:24.340Z,1017.51
2023-01-29T04:47:24.378Z,1017.50
2023-01-29T04:48:24.317Z,1017.48
2023-01-29T04:49:24.314Z,1017.52
2023-01-29T04:50:24.312Z,1017.42
2023-01-29T04:51:24.291Z,1017.43
2023-01-29T04:52:24.298Z,1017.45
2023-01-29T04:53:24.272Z,1017.32
2023-01-29T04:54:24.260Z,1017.30
2023-01-29T04:55:29.276Z,1017.27
2023-01-29T04:56:24.229Z,1017.21
2023-01-29T04:57:24.223Z,1017.15
2023-01-29T04:58:24.207Z,1017.25
2023-01-29T04:59:24.203Z,1017.15
2023-01-29T05:00:24.207Z,1017.10
2023-01-29T05:01:24.222Z,1017.12
2023-01-29T05:02:24.263Z,1017.17
2023-01-29T05:03:24.153Z,1017.16
2023-01-29T05:04:24.143Z,1017.23
2023-01-29T05:05:24.138Z,1017.28
2023-01-29T05:06:29.157Z,1017.19
2023-01-29T05:07:24.124Z,1017.19
2023-01-29T05:08:24.098Z,1017.15
2023-01-29T05:09:24.090Z,1017.13
2023-01-29T05:10:24.099Z,1017.10
2023-01-29T05:11:24.094Z,1017.09
2023-01-29T05:12:24.060Z,1017.12
2023-01-29T05:13:24.058Z,1017.11
2023-01-29T05:14:24.046Z,1017.14
2023-01-29T05:15:24.025Z,1017.16
2023-01-29T05:16:24.110Z,1017.11
2023-01-29T05:17:29.026Z,1017.20
2023-01-29T05:18:24.006Z,1017.22
2023-01-29T05:19:23.978Z,1017.23
2023-01-29T05:20:23.992Z,1017.24
2023-01-29T05:21:23.961Z,1017.16
2023-01-29T05:22:23.943Z,1017.22
2023-01-29T05:23:23.936Z,1017.35
2023-01-29T05:24:24.009Z,1017.34
2023-01-29T05:25:23.912Z,1017.47
2023-01-29T05:26:23.913Z,1017.44
2023-01-29T05:27:23.897Z,1017.45
2023-01-29T05:28:28.933Z,1017.39
2023-01-29T05:29:23.884Z,1017.46
2023-01-29T05:30:23.873Z,1017.31
2023-01-29T05:31:24.024Z,1017.42
2023-01-29T05:32:23.835Z,1017.42
2023-01-29T05:33:23.820Z,1017.55
2023-01-29T05:34:23.817Z,1017.54
2023-01-29T05:35:23.804Z,1017.56
2023-01-29T05:36:23.816Z,1017.52
2023-01-29T05:37:23.786Z,1017.54
2023-01-29T05:38:23.778Z,1017.57
2023-01-29T05:39:28.780Z,1017.54
2023-01-29T05:40:23.742Z,1017.53
2023-01-29T05:41:23.750Z,1017.55
2023-01-29T05:42:23.724Z,1017.58
2023-01-29T05:43:23.740Z,1017.55
2023-01-29T05:44:23.710Z,1017.59
2023-01-29T05:45:23.697Z,1017.51
2023-01-29T05:46:23.787Z,1017.55
2023-01-29T05:47:23.677Z,1017.50
2023-01-29T05:48:23.665Z,1017.52
2023-01-29T05:49:23.662Z,1017.52
2023-01-29T05:50:28.670Z,1017.50
2023-01-29T05:51:23.923Z,1017.55
2023-01-29T05:52:23.613Z,1017.49
2023-01-29T05:53:23.615Z,1017.49
2023-01-29T05:54:23.592Z,1017.49
2023-01-29T05:55:23.576Z,1017.47
2023-01-29T05:56:23.575Z,1017.43
2023-01-29T05:57:23.600Z,1017.38
2023-01-29T05:58:23.546Z,1017.35
2023-01-29T05:59:23.541Z,1017.38
2023-01-29T06:00:23.540Z,1017.37
2023-01-29T06:01:28.547Z,1017.34
2023-01-29T06:02:23.505Z,1017.34
2023-01-29T06:03:23.486Z,1017.38
2023-01-29T06:04:23.476Z,1017.39
2023-01-29T06:05:23.474Z,1017.37
2023-01-29T06:06:23.490Z,1017.33
2023-01-29T06:07:23.456Z,1017.30
2023-01-29T06:08:23.432Z,1017.31
2023-01-29T06:09:23.422Z,1017.29
2023-01-29T06:10:23.413Z,1017.30
2023-01-29T06:11:23.425Z,1017.20
2023-01-29T06:12:28.410Z,1017.28
2023-01-29T06:13:23.747Z,1017.31
2023-01-29T06:14:23.370Z,1017.30
2023-01-29T06:15:23.356Z,1017.29
2023-01-29T06:16:23.409Z,1017.32
2023-01-29T06:17:23.338Z,1017.40
2023-01-29T06:18:23.326Z,1017.43
2023-01-29T06:19:23.323Z,1017.44
2023-01-29T06:20:23.299Z,1017.54
2023-01-29T06:21:23.305Z,1017.57
2023-01-29T06:22:23.280Z,1017.56
2023-01-29T06:23:28.297Z,1017.63
2023-01-29T06:24:23.351Z,1017.59
2023-01-29T06:25:23.244Z,1017.59
2023-01-29T06:26:23.252Z,1017.59
2023-01-29T06:27:23.266Z,1017.60
2023-01-29T06:28:23.242Z,1017.54
2023-01-29T06:29:23.220Z,1017.58
2023-01-29T06:30:23.194Z,1017.57
2023-01-29T06:31:37.357Z,1017.55
2023-01-29T06:32:24.188Z,1017.47
2023-01-29T06:33:23.167Z,1017.45
2023-01-29T06:34:28.174Z,1017.52
2023-01-29T06:35:23.136Z,1017.44
2023-01-29T06:36:23.123Z,1017.44
2023-01-29T06:37:23.123Z,1017.37
2023-01-29T06:38:23.105Z,1017.37
2023-01-29T06:39:23.109Z,1017.33
2023-01-29T06:40:23.086Z,1017.31
2023-01-29T06:41:23.097Z,1017.31
2023-01-29T06:42:23.068Z,1017.34
2023-01-29T06:43:23.085Z,1017.32
2023-01-29T06:44:23.044Z,1017.33
2023-01-29T06:45:28.070Z,1017.28
2023-01-29T06:46:23.011Z,1017.25
2023-01-29T06:47:23.019Z,1017.26
2023-01-29T06:48:22.992Z,1017.37
2023-01-29T06:49:22.980Z,1017.33
2023-01-29T06:50:22.993Z,1017.31
2023-01-29T06:51:23.011Z,1017.33
2023-01-29T06:52:22.957Z,1017.32
2023-01-29T06:53:22.934Z,1017.34
2023-01-29T06:54:22.943Z,1017.31
2023-01-29T06:55:22.933Z,1017.28
2023-01-29T06:56:27.935Z,1017.29
2023-01-29T06:57:22.900Z,1017.30
2023-01-29T06:58:22.878Z,1017.39
2023-01-29T06:59:22.882Z,1017.36
2023-01-29T07:00:22.904Z,1017.35
2023-01-29T07:01:35.180Z,1017.46
2023-01-29T07:02:23.911Z,1017.49
2023-01-29T07:03:22.822Z,1017.47
2023-01-29T07:04:22.815Z,1017.47
2023-01-29T07:05:22.825Z,1017.43
2023-01-29T07:06:22.808Z,1017.39
2023-01-29T07:07:27.817Z,1017.40
2023-01-29T07:08:22.767Z,1017.44
2023-01-29T07:09:22.759Z,1017.43
2023-01-29T07:10:22.770Z,1017.46
2023-01-29T07:11:22.737Z,1017.46
2023-01-29T07:12:22.735Z,1017.49
2023-01-29T07:13:22.721Z,1017.50
2023-01-29T07:14:22.726Z,1017.49
2023-01-29T07:15:22.705Z,1017.49
2023-01-29T07:16:22.706Z,1017.46
2023-01-29T07:17:22.683Z,1017.49
2023-01-29T07:18:27.679Z,1017.38
2023-01-29T07:19:22.644Z,1017.44
2023-01-29T07:20:22.635Z,1017.46
2023-01-29T07:21:22.623Z,1017.50
2023-01-29T07:22:22.638Z,1017.50
2023-01-29T07:23:22.620Z,1017.48
2023-01-29T07:24:22.716Z,1017.49
2023-01-29T07:25:22.579Z,1017.43
2023-01-29T07:26:22.600Z,1017.54
2023-01-29T07:27:22.578Z,1017.48
2023-01-29T07:28:22.559Z,1017.45
2023-01-29T07:29:27.572Z,1017.44
2023-01-29T07:30:22.530Z,1017.44
2023-01-29T07:31:22.647Z,1017.41
2023-01-29T07:32:22.539Z,1017.36
2023-01-29T07:33:22.496Z,1017.41
2023-01-29T07:34:22.478Z,1017.37
2023-01-29T07:35:22.487Z,1017.43
2023-01-29T07:36:22.459Z,1017.45
2023-01-29T07:37:22.456Z,1017.53
2023-01-29T07:38:22.446Z,1017.52
2023-01-29T07:39:22.431Z,1017.45
2023-01-29T07:40:27.455Z,1017.51
2023-01-29T07:41:22.400Z,1017.56
2023-01-29T07:42:22.419Z,1017.58
2023-01-29T07:43:22.396Z,1017.62
2023-01-29T07:44:22.375Z,1017.55
2023-01-29T07:45:22.365Z,1017.64
2023-01-29T07:46:22.354Z,1017.58
2023-01-29T07:47:22.349Z,1017.65
2023-01-29T07:48:22.329Z,1017.63
2023-01-29T07:49:22.315Z,1017.63
2023-01-29T07:50:22.332Z,1017.59
2023-01-29T07:51:27.312Z,1017.71
2023-01-29T07:52:22.544Z,1017.71
2023-01-29T07:53:22.280Z,1017.71
2023-01-29T07:54:22.262Z,1017.71
2023-01-29T07:55:22.263Z,1017.73
2023-01-29T07:56:22.239Z,1017.75
2023-01-29T07:57:22.257Z,1017.76
2023-01-29T07:58:22.213Z,1017.75
2023-01-29T07:59:22.201Z,1017.78
2023-01-29T08:00:22.201Z,1017.79
2023-01-29T08:01:22.246Z,1017.85
2023-01-29T08:02:27.272Z,1017.85
2023-01-29T08:03:22.173Z,1017.81
2023-01-29T08:04:22.152Z,1017.85
2023-01-29T08:05:22.135Z,1017.87
2023-01-29T08:06:22.134Z,1017.87
2023-01-29T08:07:22.129Z,1017.93
2023-01-29T08:08:22.112Z,1017.86
2023-01-29T08:09:22.090Z,1017.82
2023-01-29T08:10:22.080Z,1017.83
2023-01-29T08:11:22.097Z,1017.86
2023-01-29T08:12:22.083Z,1017.87
2023-01-29T08:13:27.070Z,1017.91
2023-01-29T08:14:22.039Z,1017.86
2023-01-29T08:15:22.031Z,1017.89
2023-01-29T08:16:22.075Z,1017.85
2023-01-29T08:17:22.021Z,1017.91
2023-01-29T08:18:21.993Z,1017.83
2023-01-29T08:19:21.982Z,1017.92
2023-01-29T08:20:21.977Z,1017.87
2023-01-29T08:21:22.002Z,1017.78
2023-01-29T08:22:21.973Z,1017.85
2023-01-29T08:23:21.959Z,1017.84
2023-01-29T08:24:36.051Z,1017.89
2023-01-29T08:25:23.314Z,1017.84
2023-01-29T08:26:21.910Z,1017.90
2023-01-29T08:27:21.892Z,1017.93
2023-01-29T08:28:21.898Z,1017.86
2023-01-29T08:29:21.870Z,1017.88
2023-01-29T08:30:21.871Z,1017.85
2023-01-29T08:31:21.939Z,1017.87
2023-01-29T08:32:21.849Z,1017.82
2023-01-29T08:33:29.786Z,1017.84
2023-01-29T08:34:22.826Z,1017.86
2023-01-29T08:35:26.833Z,1017.84
2023-01-29T08:36:21.797Z,1017.92
2023-01-29T08:37:21.783Z,1017.89
2023-01-29T08:38:21.793Z,1017.86
2023-01-29T08:39:21.762Z,1017.91
2023-01-29T08:40:21.752Z,1017.90
2023-01-29T08:41:21.740Z,1017.93
2023-01-29T08:42:21.740Z,1017.90
2023-01-29T08:43:21.746Z,1017.96
2023-01-29T08:44:21.705Z,1017.95
2023-01-29T08:45:21.694Z,1017.98
2023-01-29T08:46:26.708Z,1017.97
2023-01-29T08:47:21.670Z,1017.98
2023-01-29T08:48:21.677Z,1018.03
2023-01-29T08:49:21.650Z,1018.05
2023-01-29T08:50:21.640Z,1018.08
2023-01-29T08:51:21.650Z,1018.09
2023-01-29T08:52:21.619Z,1018.18
2023-01-29T08:53:21.614Z,1018.14
2023-01-29T08:54:21.595Z,1018.16
2023-01-29T08:55:21.595Z,1018.11
2023-01-29T08:56:21.571Z,1018.08
2023-01-29T08:57:26.585Z,1018.09
2023-01-29T08:58:21.564Z,1017.99
2023-01-29T08:59:21.539Z,1017.93
2023-01-29T09:00:21.538Z,1017.79
2023-01-29T09:01:21.603Z,1017.83
2023-01-29T09:02:21.565Z,1017.71
2023-01-29T09:03:21.506Z,1017.70
2023-01-29T09:04:21.481Z,1017.66
2023-01-29T09:05:21.486Z,1017.55
2023-01-29T09:06:21.463Z,1017.57
2023-01-29T09:07:21.457Z,1017.51
2023-01-29T09:08:26.487Z,1017.40
2023-01-29T09:09:21.425Z,1017.35
2023-01-29T09:10:21.417Z,1017.41
2023-01-29T09:11:21.407Z,1017.33
2023-01-29T09:12:21.410Z,1017.25
2023-01-29T09:13:21.407Z,1017.25
2023-01-29T09:14:21.379Z,1017.28
2023-01-29T09:15:21.400Z,1017.32
2023-01-29T09:16:21.352Z,1017.35
2023-01-29T09:17:21.338Z,1017.38
2023-01-29T09:18:21.365Z,1017.36
2023-01-29T09:19:26.337Z,1017.32
2023-01-29T09:20:21.305Z,1017.32
2023-01-29T09:21:21.298Z,1017.36
2023-01-29T09:22:21.298Z,1017.39
2023-01-29T09:23:21.285Z,1017.43
2023-01-29T09:24:21.265Z,1017.45
2023-01-29T09:25:21.254Z,1017.43
2023-01-29T09:26:21.290Z,1017.35
2023-01-29T09:27:21.232Z,1017.41
2023-01-29T09:28:21.231Z,1017.48
2023-01-29T09:29:21.211Z,1017.55
2023-01-29T09:30:26.221Z,1017.57
2023-01-29T09:31:21.303Z,1017.66
2023-01-29T09:32:49.669Z,1017.63
2023-01-29T09:33:22.174Z,1017.62
2023-01-29T09:34:21.151Z,1017.55
2023-01-29T09:35:21.144Z,1017.56
2023-01-29T09:36:21.133Z,1017.52
2023-01-29T09:37:22.050Z,1017.56
2023-01-29T09:38:21.121Z,1017.59
2023-01-29T09:39:21.096Z,1017.61
2023-01-29T09:40:21.083Z,1017.63
2023-01-29T09:41:26.093Z,1017.68
2023-01-29T09:42:21.067Z,1017.73
2023-01-29T09:43:21.071Z,1017.73
2023-01-29T09:44:21.053Z,1017.72
2023-01-29T09:45:21.023Z,1017.80
2023-01-29T09:46:21.071Z,1017.81
2023-01-29T09:47:21.008Z,1017.73
2023-01-29T09:48:21.004Z,1017.75
2023-01-29T09:49:20.986Z,1017.80
2023-01-29T09:50:20.970Z,1017.77
2023-01-29T09:51:20.958Z,1017.78
2023-01-29T09:52:25.978Z,1017.70
2023-01-29T09:53:21.049Z,1017.75
2023-01-29T09:54:20.933Z,1017.78
2023-01-29T09:55:20.916Z,1017.79
2023-01-29T09:56:20.922Z,1017.74
2023-01-29T09:57:20.890Z,1017.74
2023-01-29T09:58:20.903Z,1017.81
2023-01-29T09:59:20.868Z,1017.81
2023-01-29T10:00:20.857Z,1017.91
2023-01-29T10:01:20.946Z,1017.90
2023-01-29T10:02:20.954Z,1017.96
2023-01-29T10:03:25.860Z,1017.98
2023-01-29T10:04:20.919Z,1018.02
2023-01-29T10:05:20.909Z,1018.08
2023-01-29T10:06:20.812Z,1018.03
2023-01-29T10:07:20.777Z,1018.03
2023-01-29T10:08:20.773Z,1018.09
2023-01-29T10:09:20.777Z,1018.06
2023-01-29T10:10:20.825Z,1018.04
2023-01-29T10:11:20.735Z,1017.98
2023-01-29T10:12:20.770Z,1018.00
2023-01-29T10:13:20.709Z,1018.05
2023-01-29T10:14:25.906Z,1018.01
2023-01-29T10:15:20.710Z,1018.03
2023-01-29T10:16:20.693Z,1017.95
2023-01-29T10:17:20.832Z,1017.99
2023-01-29T10:18:20.675Z,1018.12
2023-01-29T10:19:20.653Z,1018.01
2023-01-29T10:20:20.647Z,1018.03
2023-01-29T10:21:20.625Z,1018.04
2023-01-29T10:22:20.620Z,1017.99
2023-01-29T10:23:20.609Z,1017.91
2023-01-29T10:24:20.603Z,1017.96
2023-01-29T10:25:25.621Z,1017.97
2023-01-29T10:26:20.667Z,1017.94
2023-01-29T10:27:20.559Z,1017.88
2023-01-29T10:28:20.560Z,1017.81
2023-01-29T10:29:20.575Z,1017.83
2023-01-29T10:30:20.631Z,1017.88
2023-01-29T10:31:20.744Z,1017.85
2023-01-29T10:32:20.509Z,1017.81
2023-01-29T10:33:20.508Z,1017.82
2023-01-29T10:34:20.476Z,1017.76
2023-01-29T10:35:20.477Z,1017.74
2023-01-29T10:36:25.484Z,1017.74
2023-01-29T10:37:20.451Z,1017.71
2023-01-29T10:38:20.434Z,1017.65
2023-01-29T10:39:20.419Z,1017.66
2023-01-29T10:40:20.430Z,1017.69
2023-01-29T10:41:20.396Z,1017.68
2023-01-29T10:42:20.385Z,1017.65
2023-01-29T10:43:20.372Z,1017.62
2023-01-29T10:44:20.372Z,1017.58
2023-01-29T10:45:20.677Z,1017.59
2023-01-29T10:46:20.338Z,1017.51
2023-01-29T10:47:25.388Z,1017.52
2023-01-29T10:48:20.317Z,1017.53
2023-01-29T10:49:20.307Z,1017.48
2023-01-29T10:50:20.309Z,1017.54
2023-01-29T10:51:20.281Z,1017.55
2023-01-29T10:52:20.268Z,1017.58
2023-01-29T10:53:20.262Z,1017.62
2023-01-29T10:54:20.257Z,1017.53
2023-01-29T10:55:20.252Z,1017.54
2023-01-29T10:56:23.020Z,1017.42
2023-01-29T10:57:20.298Z,1017.44
2023-01-29T10:58:25.228Z,1017.39
2023-01-29T10:59:20.208Z,1017.38
2023-01-29T11:00:20.193Z,1017.38
2023-01-29T11:01:20.325Z,1017.40
2023-01-29T11:02:20.226Z,1017.32
2023-01-29T11:04:21.137Z,1017.24
2023-01-29T11:05:20.156Z,1017.21
2023-01-29T11:06:20.126Z,1017.25
2023-01-29T11:07:20.101Z,1017.17
2023-01-29T11:08:20.095Z,1017.14
2023-01-29T11:09:25.098Z,1017.19
2023-01-29T11:10:20.138Z,1017.08
2023-01-29T11:11:20.070Z,1017.17
2023-01-29T11:12:21.624Z,1017.02
2023-01-29T11:13:20.030Z,1017.04
2023-01-29T11:14:20.021Z,1017.04
2023-01-29T11:15:20.011Z,1017.05
2023-01-29T11:16:20.013Z,1017.11
2023-01-29T11:17:20.085Z,1017.07
2023-01-29T11:18:20.003Z,1017.06
2023-01-29T11:19:20.312Z,1017.06
2023-01-29T11:20:24.979Z,1017.00
2023-01-29T11:21:19.949Z,1017.01
2023-01-29T11:22:19.936Z,1017.00
2023-01-29T11:23:19.920Z,1017.01
2023-01-29T11:24:19.926Z,1017.00
2023-01-29T11:25:19.898Z,1017.06
2023-01-29T11:26:19.927Z,1017.08
2023-01-29T11:27:19.888Z,1017.06
2023-01-29T11:28:19.863Z,1017.05
2023-01-29T11:29:19.855Z,1016.97
2023-01-29T11:30:20.108Z,1016.97
2023-01-29T11:31:25.008Z,1016.92
2023-01-29T11:32:19.817Z,1016.95
2023-01-29T11:33:19.823Z,1016.93
2023-01-29T11:34:19.807Z,1016.90
2023-01-29T11:35:19.821Z,1016.90
2023-01-29T11:36:19.785Z,1016.88
2023-01-29T11:37:19.767Z,1016.77
2023-01-29T11:38:19.768Z,1016.71
2023-01-29T11:39:19.754Z,1016.73
2023-01-29T11:40:19.965Z,1016.68
2023-01-29T11:41:19.725Z,1016.62
2023-01-29T11:42:24.723Z,1016.58
2023-01-29T11:43:19.697Z,1016.60
2023-01-29T11:44:19.683Z,1016.61
2023-01-29T11:45:19.675Z,1016.56
2023-01-29T11:46:19.685Z,1016.54
2023-01-29T11:47:19.688Z,1016.51
2023-01-29T11:48:19.666Z,1016.46
2023-01-29T11:49:21.045Z,1016.50
2023-01-29T11:50:19.860Z,1016.50
2023-01-29T11:51:19.647Z,1016.48
2023-01-29T11:52:19.591Z,1016.47
2023-01-29T11:53:24.605Z,1016.44
2023-01-29T11:54:19.575Z,1016.40
2023-01-29T11:55:19.557Z,1016.40
2023-01-29T11:56:19.561Z,1016.34
2023-01-29T11:57:20.160Z,1016.32
2023-01-29T11:58:19.521Z,1016.29
2023-01-29T11:59:19.512Z,1016.27
2023-01-29T12:00:19.900Z,1016.26
2023-01-29T12:01:19.502Z,1016.20
2023-01-29T12:02:19.480Z,1016.23
2023-01-29T12:03:19.471Z,1016.17
2023-01-29T12:04:24.478Z,1016.20
2023-01-29T12:05:19.463Z,1016.16
2023-01-29T12:06:19.444Z,1016.23
2023-01-29T12:07:19.424Z,1016.17
2023-01-29T12:08:19.421Z,1016.18
2023-01-29T12:09:19.424Z,1016.20
2023-01-29T12:10:19.571Z,1016.15
2023-01-29T12:11:19.387Z,1016.11
2023-01-29T12:12:19.370Z,1016.08
2023-01-29T12:13:19.358Z,1016.06
2023-01-29T12:14:19.344Z,1016.07
2023-01-29T12:15:24.361Z,1016.05
2023-01-29T12:16:19.408Z,1016.03
2023-01-29T12:17:19.318Z,1016.01
2023-01-29T12:18:19.318Z,1015.95
2023-01-29T12:19:19.289Z,1016.03
2023-01-29T12:20:19.597Z,1015.99
2023-01-29T12:21:19.279Z,1015.94
2023-01-29T12:22:19.266Z,1015.98
2023-01-29T12:23:19.255Z,1015.98
2023-01-29T12:24:19.227Z,1015.93
2023-01-29T12:25:19.242Z,1015.98
2023-01-29T12:26:24.292Z,1015.88
2023-01-29T12:27:19.213Z,1015.90
2023-01-29T12:28:19.197Z,1015.87
2023-01-29T12:29:19.179Z,1015.87
2023-01-29T12:30:19.481Z,1015.90
2023-01-29T12:31:19.175Z,1015.84
2023-01-29T12:32:19.151Z,1015.85
2023-01-29T12:33:19.131Z,1015.83
2023-01-29T12:34:19.118Z,1015.85
2023-01-29T12:35:19.104Z,1015.78
2023-01-29T12:36:19.096Z,1015.77
2023-01-29T12:37:24.128Z,1015.80
2023-01-29T12:38:19.079Z,1015.76
2023-01-29T12:39:19.060Z,1015.78
2023-01-29T12:40:19.400Z,1015.80
2023-01-29T12:41:19.050Z,1015.87
2023-01-29T12:42:19.044Z,1015.82
2023-01-29T12:43:19.032Z,1015.83
2023-01-29T12:44:19.004Z,1015.77
2023-01-29T12:45:18.997Z,1015.86
2023-01-29T12:46:18.989Z,1015.86
2023-01-29T12:47:18.986Z,1015.89
2023-01-29T12:48:23.980Z,1015.82
2023-01-29T12:49:18.949Z,1015.85
2023-01-29T12:50:19.284Z,1015.88
2023-01-29T12:51:18.926Z,1015.78
2023-01-29T12:52:18.923Z,1015.78
2023-01-29T12:53:18.930Z,1015.78
2023-01-29T12:54:18.891Z,1015.76
2023-01-29T12:55:18.881Z,1015.75
2023-01-29T12:56:18.875Z,1015.64
2023-01-29T12:57:18.870Z,1015.77
2023-01-29T12:58:18.869Z,1015.72
2023-01-29T12:59:23.859Z,1015.62
2023-01-29T13:00:19.185Z,1015.64
2023-01-29T13:01:18.878Z,1015.60
2023-01-29T13:02:18.835Z,1015.60
2023-01-29T13:03:18.822Z,1015.51
2023-01-29T13:04:18.785Z,1015.47
2023-01-29T13:05:18.768Z,1015.49
2023-01-29T13:06:18.756Z,1015.49
2023-01-29T13:07:18.764Z,1015.49
2023-01-29T13:08:18.738Z,1015.42
2023-01-29T13:09:18.733Z,1015.44
2023-01-29T13:10:23.735Z,1015.46
2023-01-29T13:11:18.703Z,1015.48
2023-01-29T13:12:18.698Z,1015.52
2023-01-29T13:13:18.686Z,1015.49
2023-01-29T13:14:18.664Z,1015.51
2023-01-29T13:15:18.673Z,1015.51
2023-01-29T13:16:18.664Z,1015.51
2023-01-29T13:17:18.649Z,1015.47
2023-01-29T13:18:18.621Z,1015.47
2023-01-29T13:19:18.621Z,1015.48
2023-01-29T13:20:18.988Z,1015.41
2023-01-29T13:21:23.615Z,1015.47
2023-01-29T13:22:18.597Z,1015.43
2023-01-29T13:23:18.594Z,1015.39
2023-01-29T13:24:18.602Z,1015.35
2023-01-29T13:25:18.556Z,1015.30
2023-01-29T13:26:18.576Z,1015.28
2023-01-29T13:27:18.557Z,1015.24
2023-01-29T13:28:18.553Z,1015.15
2023-01-29T13:29:18.497Z,1015.27
2023-01-29T13:30:18.688Z,1015.30
2023-01-29T13:31:18.493Z,1015.23
2023-01-29T13:32:23.506Z,1015.27
2023-01-29T13:33:18.476Z,1015.23
2023-01-29T13:34:18.451Z,1015.19
2023-01-29T13:35:18.817Z,1015.22
2023-01-29T13:36:18.421Z,1015.17
2023-01-29T13:37:18.412Z,1015.12
2023-01-29T13:38:18.427Z,1015.15
2023-01-29T13:39:18.407Z,1015.13
2023-01-29T13:40:18.382Z,1015.18
2023-01-29T13:41:18.404Z,1015.20
2023-01-29T13:42:18.353Z,1015.21
2023-01-29T13:43:23.383Z,1015.21
2023-01-29T13:44:18.346Z,1015.22
2023-01-29T13:45:18.817Z,1015.23
2023-01-29T13:46:18.371Z,1015.25
2023-01-29T13:47:18.305Z,1015.28
2023-01-29T13:48:18.311Z,1015.25
2023-01-29T13:49:18.293Z,1015.23
2023-01-29T13:50:18.264Z,1015.25
2023-01-29T13:51:18.254Z,1015.26
2023-01-29T13:52:18.240Z,1015.24
2023-01-29T13:53:18.260Z,1015.20
2023-01-29T13:54:23.250Z,1015.15
2023-01-29T13:55:18.575Z,1015.14
2023-01-29T13:56:18.196Z,1015.05
2023-01-29T13:57:18.182Z,1015.05
2023-01-29T13:58:18.202Z,1014.96
2023-01-29T13:59:18.198Z,1014.99
2023-01-29T14:00:18.154Z,1014.93
2023-01-29T14:01:18.241Z,1014.97
2023-01-29T14:02:18.187Z,1014.93
2023-01-29T14:03:18.131Z,1014.92
2023-01-29T14:04:18.104Z,1014.82
2023-01-29T14:05:23.113Z,1014.89
2023-01-29T14:06:18.079Z,1014.89
2023-01-29T14:07:18.088Z,1014.86
2023-01-29T14:08:18.068Z,1014.90
2023-01-29T14:09:18.060Z,1014.86
2023-01-29T14:10:18.065Z,1014.83
2023-01-29T14:11:18.036Z,1014.80
2023-01-29T14:12:18.026Z,1014.79
2023-01-29T14:13:18.221Z,1014.76
2023-01-29T14:14:17.993Z,1014.80
2023-01-29T14:15:21.083Z,1014.82
2023-01-29T14:16:23.023Z,1014.87
2023-01-29T14:17:17.999Z,1014.85
2023-01-29T14:18:17.946Z,1014.94
2023-01-29T14:19:17.951Z,1014.93
2023-01-29T14:20:17.938Z,1014.91
2023-01-29T14:21:17.914Z,1014.88
2023-01-29T14:22:17.900Z,1014.82
2023-01-29T14:23:17.961Z,1014.79
2023-01-29T14:24:17.919Z,1014.83
2023-01-29T14:25:18.171Z,1014.88
2023-01-29T14:26:17.897Z,1014.87
2023-01-29T14:27:22.885Z,1014.86
2023-01-29T14:28:17.847Z,1014.87
2023-01-29T14:29:21.617Z,1014.84
2023-01-29T14:30:18.844Z,1014.87
2023-01-29T14:31:17.940Z,1014.92
2023-01-29T14:32:17.806Z,1014.89
2023-01-29T14:33:17.779Z,1014.94
2023-01-29T14:34:17.766Z,1014.88
2023-01-29T14:35:18.030Z,1014.84
2023-01-29T14:36:17.743Z,1014.80
2023-01-29T14:37:17.739Z,1014.80
2023-01-29T14:38:22.783Z,1014.77
2023-01-29T14:39:17.710Z,1014.80
2023-01-29T14:40:17.735Z,1014.78
2023-01-29T14:41:17.686Z,1014.78
2023-01-29T14:42:17.673Z,1014.77
2023-01-29T14:43:17.681Z,1014.82
2023-01-29T14:44:17.650Z,1014.81
2023-01-29T14:45:17.985Z,1014.76
2023-01-29T14:46:17.682Z,1014.72
2023-01-29T14:47:17.617Z,1014.73
2023-01-29T14:48:17.631Z,1014.69
2023-01-29T14:49:22.631Z,1014.77
2023-01-29T14:50:17.592Z,1014.75
2023-01-29T14:51:17.573Z,1014.76
2023-01-29T14:52:17.559Z,1014.79
2023-01-29T14:53:17.549Z,1014.73
2023-01-29T14:54:17.542Z,1014.71
2023-01-29T14:55:17.857Z,1014.70
2023-01-29T14:56:17.552Z,1014.72
2023-01-29T14:57:17.510Z,1014.71
2023-01-29T14:58:17.495Z,1014.74
2023-01-29T14:59:17.491Z,1014.68
2023-01-29T15:00:22.506Z,1014.72
2023-01-29T15:01:17.521Z,1014.67
2023-01-29T15:02:17.536Z,1014.74
2023-01-29T15:03:17.474Z,1014.69
2023-01-29T15:04:17.433Z,1014.70
2023-01-29T15:05:17.814Z,1014.67
2023-01-29T15:06:17.401Z,1014.61
2023-01-29T15:07:17.396Z,1014.66
2023-01-29T15:08:17.384Z,1014.68
2023-01-29T15:09:17.371Z,1014.68
2023-01-29T15:10:23.576Z,1014.73
2023-01-29T15:11:23.370Z,1014.76
2023-01-29T15:12:17.335Z,1014.74
2023-01-29T15:13:17.321Z,1014.70
2023-01-29T15:14:17.315Z,1014.72
2023-01-29T15:15:17.693Z,1014.80
2023-01-29T15:16:17.375Z,1014.76
2023-01-29T15:17:17.313Z,1014.76
2023-01-29T15:18:17.296Z,1014.64
2023-01-29T15:19:17.262Z,1014.68
2023-01-29T15:20:17.257Z,1014.68
2023-01-29T15:21:17.252Z,1014.67
2023-01-29T15:22:22.260Z,1014.72
2023-01-29T15:23:17.213Z,1014.68
2023-01-29T15:24:17.229Z,1014.67
2023-01-29T15:25:17.568Z,1014.74
2023-01-29T15:26:17.227Z,1014.66
2023-01-29T15:27:17.165Z,1014.71
2023-01-29T15:28:17.150Z,1014.66
2023-01-29T15:29:17.144Z,1014.69
2023-01-29T15:30:17.139Z,1014.67
2023-01-29T15:31:17.330Z,1014.63
2023-01-29T15:32:17.117Z,1014.68
2023-01-29T15:33:22.159Z,1014.68
2023-01-29T15:34:17.086Z,1014.74
2023-01-29T15:35:17.283Z,1014.71
2023-01-29T15:36:17.072Z,1014.77
2023-01-29T15:37:17.053Z,1014.75
2023-01-29T15:38:17.063Z,1014.82
2023-01-29T15:39:17.029Z,1014.85
2023-01-29T15:40:17.033Z,1014.83
2023-01-29T15:41:17.022Z,1014.88
2023-01-29T15:42:17.001Z,1014.89
2023-01-29T15:43:16.984Z,1014.90
2023-01-29T15:44:22.000Z,1014.82
2023-01-29T15:45:17.303Z,1014.92
2023-01-29T15:46:16.963Z,1014.80
2023-01-29T15:47:16.955Z,1014.82
2023-01-29T15:48:16.932Z,1014.79
2023-01-29T15:49:16.931Z,1014.80
2023-01-29T15:50:16.918Z,1014.83
2023-01-29T15:51:16.909Z,1014.80
2023-01-29T15:52:16.892Z,1014.79
2023-01-29T15:53:16.873Z,1014.73
2023-01-29T15:54:16.924Z,1014.69
2023-01-29T15:55:21.876Z,1014.65
2023-01-29T15:56:16.851Z,1014.66
2023-01-29T15:57:16.827Z,1014.69
2023-01-29T15:58:16.821Z,1014.63
2023-01-29T15:59:16.810Z,1014.58
2023-01-29T16:00:16.797Z,1014.58
2023-01-29T16:01:16.869Z,1014.54
2023-01-29T16:02:16.776Z,1014.56
2023-01-29T16:03:16.775Z,1014.49
2023-01-29T16:04:16.752Z,1014.44
2023-01-29T16:05:17.023Z,1014.44
2023-01-29T16:06:21.762Z,1014.41
2023-01-29T16:07:16.722Z,1014.42
2023-01-29T16:08:16.732Z,1014.36
2023-01-29T16:09:16.703Z,1014.40
2023-01-29T16:10:16.687Z,1014.39
2023-01-29T16:11:16.689Z,1014.39
2023-01-29T16:12:16.684Z,1014.39
2023-01-29T16:13:16.670Z,1014.37
2023-01-29T16:14:16.650Z,1014.33
2023-01-29T16:15:16.870Z,1014.27
2023-01-29T16:16:16.750Z,1014.27
2023-01-29T16:17:21.646Z,1014.24
2023-01-29T16:18:16.597Z,1014.27
2023-01-29T16:19:16.586Z,1014.29
2023-01-29T16:20:16.577Z,1014.14
2023-01-29T16:21:16.570Z,1014.22
2023-01-29T16:22:16.597Z,1014.24
2023-01-29T16:23:16.544Z,1014.27
2023-01-29T16:24:16.531Z,1014.28
2023-01-29T16:25:17.000Z,1014.22
2023-01-29T16:26:16.569Z,1014.18
2023-01-29T16:27:16.511Z,1014.20
2023-01-29T16:28:21.513Z,1014.20
2023-01-29T16:29:16.481Z,1014.22
2023-01-29T16:30:16.485Z,1014.18
2023-01-29T16:31:16.613Z,1014.13
2023-01-29T16:32:16.509Z,1014.15
2023-01-29T16:33:16.430Z,1014.11
2023-01-29T16:34:16.422Z,1014.07
2023-01-29T16:35:17.058Z,1014.07
2023-01-29T16:36:16.400Z,1014.07
2023-01-29T16:37:16.407Z,1014.08
2023-01-29T16:38:16.377Z,1014.06
2023-01-29T16:39:21.403Z,1014.02